sensor_id;sensor_type;location;lat;lon;timestamp;P1;durP1;ratioP1;P2;durP2;ratioP2
49241;SDS011;35079;52.704;13.814;2023-08-24T00:00:22;4.75;;;3.58;;
49241;SDS011;35079;52.704;13.814;2023-08-24T00:02:48;7.35;;;3.25;;
49241;SDS011;35079;52.704;13.814;2023-08-24T00:05:13;4.40;;;3.15;;
49241;SDS011;35079;52.704;13.814;2023-08-24T00:07:39;4.25;;;3.45;;
49241;SDS011;35079;52.704;13.814;2023-08-24T00:10:06;4.68;;;3.35;;
49241;SDS011;35079;52.704;13.814;2023-08-24T00:12:32;5.82;;;3.15;;
49241;SDS011;35079;52.704;13.814;2023-08-24T00:14:58;7.60;;;3.58;;
49241;SDS011;35079;52.704;13.814;2023-08-24T00:17:24;4.57;;;3.03;;
49241;SDS011;35079;52.704;13.814;2023-08-24T00:19:49;6.93;;;3.45;;
49241;SDS011;35079;52.704;13.814;2023-08-24T00:22:15;4.03;;;3.30;;
49241;SDS011;35079;52.704;13.814;2023-08-24T00:24:41;4.28;;;3.35;;
49241;SDS011;35079;52.704;13.814;2023-08-24T00:27:06;4.43;;;3.30;;
49241;SDS011;35079;52.704;13.814;2023-08-24T00:29:32;6.05;;;3.50;;
49241;SDS011;35079;52.704;13.814;2023-08-24T00:31:57;3.88;;;3.53;;
49241;SDS011;35079;52.704;13.814;2023-08-24T00:34:23;4.13;;;3.60;;
49241;SDS011;35079;52.704;13.814;2023-08-24T00:36:48;4.50;;;3.75;;
49241;SDS011;35079;52.704;13.814;2023-08-24T00:39:14;5.65;;;3.92;;
49241;SDS011;35079;52.704;13.814;2023-08-24T00:41:41;5.07;;;3.88;;
49241;SDS011;35079;52.704;13.814;2023-08-24T00:44:07;4.07;;;3.60;;
49241;SDS011;35079;52.704;13.814;2023-08-24T00:46:32;5.20;;;3.80;;
49241;SDS011;35079;52.704;13.814;2023-08-24T00:48:59;7.20;;;4.18;;
49241;SDS011;35079;52.704;13.814;2023-08-24T00:51:25;5.05;;;4.00;;
49241;SDS011;35079;52.704;13.814;2023-08-24T00:53:51;4.40;;;3.80;;
49241;SDS011;35079;52.704;13.814;2023-08-24T00:56:17;4.80;;;3.90;;
49241;SDS011;35079;52.704;13.814;2023-08-24T00:58:46;7.63;;;3.70;;
49241;SDS011;35079;52.704;13.814;2023-08-24T01:01:12;4.95;;;3.70;;
49241;SDS011;35079;52.704;13.814;2023-08-24T01:03:38;5.32;;;3.80;;
49241;SDS011;35079;52.704;13.814;2023-08-24T01:06:04;5.20;;;3.53;;
49241;SDS011;35079;52.704;13.814;2023-08-24T01:08:30;4.63;;;3.08;;
49241;SDS011;35079;52.704;13.814;2023-08-24T01:14:04;7.35;;;3.55;;
49241;SDS011;35079;52.704;13.814;2023-08-24T01:16:26;4.20;;;3.33;;
49241;SDS011;35079;52.704;13.814;2023-08-24T01:18:59;4.35;;;3.45;;
49241;SDS011;35079;52.704;13.814;2023-08-24T01:21:26;6.07;;;3.33;;
49241;SDS011;35079;52.704;13.814;2023-08-24T01:26:43;8.20;;;3.72;;
49241;SDS011;35079;52.704;13.814;2023-08-24T01:29:12;4.10;;;2.97;;
49241;SDS011;35079;52.704;13.814;2023-08-24T01:31:38;3.75;;;3.20;;
49241;SDS011;35079;52.704;13.814;2023-08-24T01:34:03;5.63;;;3.25;;
49241;SDS011;35079;52.704;13.814;2023-08-24T01:36:29;3.75;;;3.13;;
49241;SDS011;35079;52.704;13.814;2023-08-24T01:39:02;5.75;;;2.90;;
49241;SDS011;35079;52.704;13.814;2023-08-24T01:41:36;3.80;;;3.08;;
49241;SDS011;35079;52.704;13.814;2023-08-24T01:44:04;3.75;;;3.10;;
49241;SDS011;35079;52.704;13.814;2023-08-24T01:46:33;4.18;;;2.35;;
49241;SDS011;35079;52.704;13.814;2023-08-24T01:49:01;4.93;;;3.00;;
49241;SDS011;35079;52.704;13.814;2023-08-24T01:51:28;5.28;;;2.72;;
49241;SDS011;35079;52.704;13.814;2023-08-24T01:53:55;3.38;;;2.78;;
49241;SDS011;35079;52.704;13.814;2023-08-24T01:56:23;3.97;;;3.10;;
49241;SDS011;35079;52.704;13.814;2023-08-24T01:58:49;4.93;;;2.90;;
49241;SDS011;35079;52.704;13.814;2023-08-24T02:01:14;7.32;;;3.20;;
49241;SDS011;35079;52.704;13.814;2023-08-24T02:03:40;3.80;;;2.92;;
49241;SDS011;35079;52.704;13.814;2023-08-24T02:06:06;4.57;;;3.40;;
49241;SDS011;35079;52.704;13.814;2023-08-24T02:08:32;3.80;;;2.75;;
49241;SDS011;35079;52.704;13.814;2023-08-24T02:10:58;3.67;;;2.70;;
49241;SDS011;35079;52.704;13.814;2023-08-24T02:13:23;5.95;;;2.85;;
49241;SDS011;35079;52.704;13.814;2023-08-24T02:15:49;3.00;;;2.60;;
49241;SDS011;35079;52.704;13.814;2023-08-24T02:18:15;4.35;;;2.40;;
49241;SDS011;35079;52.704;13.814;2023-08-24T02:20:40;3.60;;;2.75;;
49241;SDS011;35079;52.704;13.814;2023-08-24T02:23:06;5.38;;;2.70;;
49241;SDS011;35079;52.704;13.814;2023-08-24T02:25:32;4.28;;;3.20;;
49241;SDS011;35079;52.704;13.814;2023-08-24T02:27:58;5.90;;;2.90;;
49241;SDS011;35079;52.704;13.814;2023-08-24T02:30:24;5.22;;;2.70;;
49241;SDS011;35079;52.704;13.814;2023-08-24T02:32:50;4.18;;;3.10;;
49241;SDS011;35079;52.704;13.814;2023-08-24T02:35:16;3.22;;;2.83;;
49241;SDS011;35079;52.704;13.814;2023-08-24T02:37:43;3.35;;;2.80;;
49241;SDS011;35079;52.704;13.814;2023-08-24T02:40:08;4.65;;;2.35;;
49241;SDS011;35079;52.704;13.814;2023-08-24T02:42:34;3.70;;;2.58;;
49241;SDS011;35079;52.704;13.814;2023-08-24T02:45:00;3.17;;;2.88;;
49241;SDS011;35079;52.704;13.814;2023-08-24T02:47:27;4.15;;;2.80;;
49241;SDS011;35079;52.704;13.814;2023-08-24T02:49:52;5.72;;;3.05;;
49241;SDS011;35079;52.704;13.814;2023-08-24T02:52:18;4.95;;;2.90;;
49241;SDS011;35079;52.704;13.814;2023-08-24T02:54:44;5.45;;;2.63;;
49241;SDS011;35079;52.704;13.814;2023-08-24T02:57:09;4.32;;;2.80;;
49241;SDS011;35079;52.704;13.814;2023-08-24T02:59:35;5.85;;;2.85;;
49241;SDS011;35079;52.704;13.814;2023-08-24T03:02:01;2.50;;;2.30;;
49241;SDS011;35079;52.704;13.814;2023-08-24T03:04:26;2.60;;;2.38;;
49241;SDS011;35079;52.704;13.814;2023-08-24T03:06:52;3.13;;;2.25;;
49241;SDS011;35079;52.704;13.814;2023-08-24T03:09:18;4.32;;;2.38;;
49241;SDS011;35079;52.704;13.814;2023-08-24T03:11:44;5.95;;;2.40;;
49241;SDS011;35079;52.704;13.814;2023-08-24T03:14:09;4.75;;;2.78;;
49241;SDS011;35079;52.704;13.814;2023-08-24T03:16:36;3.60;;;2.90;;
49241;SDS011;35079;52.704;13.814;2023-08-24T03:19:03;6.38;;;3.05;;
49241;SDS011;35079;52.704;13.814;2023-08-24T03:21:29;4.13;;;2.72;;
49241;SDS011;35079;52.704;13.814;2023-08-24T03:23:55;3.72;;;2.80;;
49241;SDS011;35079;52.704;13.814;2023-08-24T03:26:21;2.95;;;2.75;;
49241;SDS011;35079;52.704;13.814;2023-08-24T03:28:48;3.10;;;2.80;;
49241;SDS011;35079;52.704;13.814;2023-08-24T03:31:14;4.13;;;3.25;;
49241;SDS011;35079;52.704;13.814;2023-08-24T03:33:39;4.38;;;2.78;;
49241;SDS011;35079;52.704;13.814;2023-08-24T03:36:05;3.30;;;2.80;;
49241;SDS011;35079;52.704;13.814;2023-08-24T03:38:31;3.90;;;2.80;;
49241;SDS011;35079;52.704;13.814;2023-08-24T03:41:03;3.30;;;2.97;;
49241;SDS011;35079;52.704;13.814;2023-08-24T03:43:32;4.32;;;2.60;;
49241;SDS011;35079;52.704;13.814;2023-08-24T03:45:59;3.83;;;2.40;;
49241;SDS011;35079;52.704;13.814;2023-08-24T03:48:25;5.43;;;2.80;;
49241;SDS011;35079;52.704;13.814;2023-08-24T03:50:53;3.30;;;2.20;;
49241;SDS011;35079;52.704;13.814;2023-08-24T03:53:20;3.92;;;2.30;;
49241;SDS011;35079;52.704;13.814;2023-08-24T03:55:49;4.75;;;2.33;;
49241;SDS011;35079;52.704;13.814;2023-08-24T03:58:18;2.95;;;2.20;;
49241;SDS011;35079;52.704;13.814;2023-08-24T04:00:44;2.67;;;2.47;;
49241;SDS011;35079;52.704;13.814;2023-08-24T04:03:10;2.65;;;2.45;;
49241;SDS011;35079;52.704;13.814;2023-08-24T04:05:36;4.35;;;2.95;;
49241;SDS011;35079;52.704;13.814;2023-08-24T04:08:02;4.70;;;2.35;;
49241;SDS011;35079;52.704;13.814;2023-08-24T04:10:29;6.32;;;2.47;;
49241;SDS011;35079;52.704;13.814;2023-08-24T04:12:55;9.25;;;2.70;;
49241;SDS011;35079;52.704;13.814;2023-08-24T04:15:21;7.93;;;3.05;;
49241;SDS011;35079;52.704;13.814;2023-08-24T04:17:47;6.32;;;2.67;;
49241;SDS011;35079;52.704;13.814;2023-08-24T04:20:13;10.02;;;2.83;;
49241;SDS011;35079;52.704;13.814;2023-08-24T04:22:39;8.90;;;2.92;;
49241;SDS011;35079;52.704;13.814;2023-08-24T04:25:04;5.05;;;2.92;;
49241;SDS011;35079;52.704;13.814;2023-08-24T04:27:31;7.13;;;3.15;;
49241;SDS011;35079;52.704;13.814;2023-08-24T04:29:57;10.15;;;3.10;;
49241;SDS011;35079;52.704;13.814;2023-08-24T04:32:23;7.20;;;2.88;;
49241;SDS011;35079;52.704;13.814;2023-08-24T04:34:49;7.47;;;3.00;;
49241;SDS011;35079;52.704;13.814;2023-08-24T04:37:15;4.72;;;2.97;;
49241;SDS011;35079;52.704;13.814;2023-08-24T04:39:41;4.55;;;2.30;;
49241;SDS011;35079;52.704;13.814;2023-08-24T04:42:06;4.93;;;2.78;;
49241;SDS011;35079;52.704;13.814;2023-08-24T04:44:32;3.83;;;2.72;;
49241;SDS011;35079;52.704;13.814;2023-08-24T04:46:58;5.82;;;3.22;;
49241;SDS011;35079;52.704;13.814;2023-08-24T04:49:24;4.75;;;3.08;;
49241;SDS011;35079;52.704;13.814;2023-08-24T04:51:49;6.57;;;3.28;;
49241;SDS011;35079;52.704;13.814;2023-08-24T04:54:15;5.55;;;3.50;;
49241;SDS011;35079;52.704;13.814;2023-08-24T04:56:41;5.82;;;3.63;;
49241;SDS011;35079;52.704;13.814;2023-08-24T04:59:06;5.15;;;4.00;;
49241;SDS011;35079;52.704;13.814;2023-08-24T05:01:32;6.63;;;4.20;;
49241;SDS011;35079;52.704;13.814;2023-08-24T05:03:58;5.82;;;4.32;;
49241;SDS011;35079;52.704;13.814;2023-08-24T05:06:24;6.88;;;4.57;;
49241;SDS011;35079;52.704;13.814;2023-08-24T05:08:50;6.88;;;4.75;;
49241;SDS011;35079;52.704;13.814;2023-08-24T05:11:19;6.80;;;4.93;;
49241;SDS011;35079;52.704;13.814;2023-08-24T05:13:49;7.43;;;5.90;;
49241;SDS011;35079;52.704;13.814;2023-08-24T05:16:14;10.13;;;6.05;;
49241;SDS011;35079;52.704;13.814;2023-08-24T05:18:40;6.45;;;5.32;;
49241;SDS011;35079;52.704;13.814;2023-08-24T05:21:06;7.65;;;5.80;;
49241;SDS011;35079;52.704;13.814;2023-08-24T05:23:32;8.73;;;5.68;;
49241;SDS011;35079;52.704;13.814;2023-08-24T05:25:59;8.20;;;5.57;;
49241;SDS011;35079;52.704;13.814;2023-08-24T05:28:25;7.53;;;5.53;;
49241;SDS011;35079;52.704;13.814;2023-08-24T05:30:52;7.80;;;4.93;;
49241;SDS011;35079;52.704;13.814;2023-08-24T05:33:18;6.50;;;4.18;;
49241;SDS011;35079;52.704;13.814;2023-08-24T05:35:45;7.32;;;5.07;;
49241;SDS011;35079;52.704;13.814;2023-08-24T05:38:11;6.97;;;5.20;;
49241;SDS011;35079;52.704;13.814;2023-08-24T05:40:37;9.23;;;5.30;;
49241;SDS011;35079;52.704;13.814;2023-08-24T05:43:04;7.60;;;4.90;;
49241;SDS011;35079;52.704;13.814;2023-08-24T05:45:30;6.05;;;4.28;;
49241;SDS011;35079;52.704;13.814;2023-08-24T05:47:55;7.78;;;4.40;;
49241;SDS011;35079;52.704;13.814;2023-08-24T05:50:21;6.57;;;4.70;;
49241;SDS011;35079;52.704;13.814;2023-08-24T05:52:47;6.35;;;4.28;;
49241;SDS011;35079;52.704;13.814;2023-08-24T05:55:12;6.60;;;3.75;;
49241;SDS011;35079;52.704;13.814;2023-08-24T05:57:38;8.10;;;4.30;;
49241;SDS011;35079;52.704;13.814;2023-08-24T06:00:04;6.05;;;3.70;;
49241;SDS011;35079;52.704;13.814;2023-08-24T06:02:34;8.45;;;3.97;;
49241;SDS011;35079;52.704;13.814;2023-08-24T06:05:00;9.02;;;4.10;;
49241;SDS011;35079;52.704;13.814;2023-08-24T06:07:26;4.93;;;3.50;;
49241;SDS011;35079;52.704;13.814;2023-08-24T06:09:52;6.20;;;3.95;;
49241;SDS011;35079;52.704;13.814;2023-08-24T06:12:18;6.32;;;3.67;;
49241;SDS011;35079;52.704;13.814;2023-08-24T06:14:43;6.30;;;3.90;;
49241;SDS011;35079;52.704;13.814;2023-08-24T06:17:09;6.57;;;3.13;;
49241;SDS011;35079;52.704;13.814;2023-08-24T06:19:34;6.47;;;3.63;;
49241;SDS011;35079;52.704;13.814;2023-08-24T06:22:00;6.55;;;3.45;;
49241;SDS011;35079;52.704;13.814;2023-08-24T06:24:26;8.48;;;3.50;;
49241;SDS011;35079;52.704;13.814;2023-08-24T06:26:59;7.22;;;3.28;;
49241;SDS011;35079;52.704;13.814;2023-08-24T06:29:30;5.78;;;3.75;;
49241;SDS011;35079;52.704;13.814;2023-08-24T06:31:59;9.23;;;3.78;;
49241;SDS011;35079;52.704;13.814;2023-08-24T06:34:25;8.52;;;3.65;;
49241;SDS011;35079;52.704;13.814;2023-08-24T06:36:53;6.63;;;3.38;;
49241;SDS011;35079;52.704;13.814;2023-08-24T06:39:19;4.78;;;3.10;;
49241;SDS011;35079;52.704;13.814;2023-08-24T06:41:45;6.53;;;3.38;;
49241;SDS011;35079;52.704;13.814;2023-08-24T06:44:11;5.57;;;2.78;;
49241;SDS011;35079;52.704;13.814;2023-08-24T06:46:37;6.28;;;2.83;;
49241;SDS011;35079;52.704;13.814;2023-08-24T06:49:09;8.77;;;2.83;;
49241;SDS011;35079;52.704;13.814;2023-08-24T06:51:35;5.38;;;2.83;;
49241;SDS011;35079;52.704;13.814;2023-08-24T06:54:01;4.30;;;2.53;;
49241;SDS011;35079;52.704;13.814;2023-08-24T06:56:27;7.38;;;3.08;;
49241;SDS011;35079;52.704;13.814;2023-08-24T06:58:52;9.57;;;3.03;;
49241;SDS011;35079;52.704;13.814;2023-08-24T07:01:18;8.85;;;3.40;;
49241;SDS011;35079;52.704;13.814;2023-08-24T07:03:44;7.63;;;2.75;;
49241;SDS011;35079;52.704;13.814;2023-08-24T07:06:10;8.48;;;2.70;;
49241;SDS011;35079;52.704;13.814;2023-08-24T07:08:37;4.38;;;2.65;;
49241;SDS011;35079;52.704;13.814;2023-08-24T07:11:03;4.50;;;2.60;;
49241;SDS011;35079;52.704;13.814;2023-08-24T07:13:29;4.47;;;2.60;;
49241;SDS011;35079;52.704;13.814;2023-08-24T07:15:54;8.70;;;2.80;;
49241;SDS011;35079;52.704;13.814;2023-08-24T07:18:22;3.50;;;2.35;;
49241;SDS011;35079;52.704;13.814;2023-08-24T07:20:48;5.65;;;2.40;;
49241;SDS011;35079;52.704;13.814;2023-08-24T07:23:14;5.28;;;2.80;;
49241;SDS011;35079;52.704;13.814;2023-08-24T07:25:39;3.65;;;2.85;;
49241;SDS011;35079;52.704;13.814;2023-08-24T07:28:06;12.50;;;3.20;;
49241;SDS011;35079;52.704;13.814;2023-08-24T07:30:33;12.32;;;2.80;;
49241;SDS011;35079;52.704;13.814;2023-08-24T07:33:00;10.48;;;2.80;;
49241;SDS011;35079;52.704;13.814;2023-08-24T07:35:28;5.80;;;2.30;;
49241;SDS011;35079;52.704;13.814;2023-08-24T07:37:54;8.63;;;2.42;;
49241;SDS011;35079;52.704;13.814;2023-08-24T07:40:20;4.53;;;2.60;;
49241;SDS011;35079;52.704;13.814;2023-08-24T07:42:50;3.28;;;2.38;;
49241;SDS011;35079;52.704;13.814;2023-08-24T07:45:21;3.72;;;2.15;;
49241;SDS011;35079;52.704;13.814;2023-08-24T07:47:48;4.53;;;2.50;;
49241;SDS011;35079;52.704;13.814;2023-08-24T07:50:14;3.63;;;2.30;;
49241;SDS011;35079;52.704;13.814;2023-08-24T07:52:40;6.40;;;2.47;;
49241;SDS011;35079;52.704;13.814;2023-08-24T07:55:06;8.25;;;2.55;;
49241;SDS011;35079;52.704;13.814;2023-08-24T07:57:33;4.75;;;2.10;;
49241;SDS011;35079;52.704;13.814;2023-08-24T07:59:59;3.45;;;2.20;;
49241;SDS011;35079;52.704;13.814;2023-08-24T08:02:24;4.85;;;2.10;;
49241;SDS011;35079;52.704;13.814;2023-08-24T08:04:51;5.00;;;2.13;;
49241;SDS011;35079;52.704;13.814;2023-08-24T08:07:22;4.50;;;2.15;;
49241;SDS011;35079;52.704;13.814;2023-08-24T08:09:48;4.30;;;2.20;;
49241;SDS011;35079;52.704;13.814;2023-08-24T08:12:14;3.67;;;2.25;;
49241;SDS011;35079;52.704;13.814;2023-08-24T08:14:39;6.10;;;2.00;;
49241;SDS011;35079;52.704;13.814;2023-08-24T08:17:05;4.32;;;1.92;;
49241;SDS011;35079;52.704;13.814;2023-08-24T08:19:30;5.57;;;2.38;;
49241;SDS011;35079;52.704;13.814;2023-08-24T08:21:57;7.03;;;2.38;;
49241;SDS011;35079;52.704;13.814;2023-08-24T08:24:22;3.63;;;1.90;;
49241;SDS011;35079;52.704;13.814;2023-08-24T08:26:48;3.30;;;1.80;;
49241;SDS011;35079;52.704;13.814;2023-08-24T08:29:14;4.13;;;2.08;;
49241;SDS011;35079;52.704;13.814;2023-08-24T08:31:40;3.55;;;2.10;;
49241;SDS011;35079;52.704;13.814;2023-08-24T08:34:06;6.05;;;2.20;;
49241;SDS011;35079;52.704;13.814;2023-08-24T08:36:31;4.45;;;1.90;;
49241;SDS011;35079;52.704;13.814;2023-08-24T08:38:57;3.50;;;1.83;;
49241;SDS011;35079;52.704;13.814;2023-08-24T08:41:23;5.30;;;2.30;;
49241;SDS011;35079;52.704;13.814;2023-08-24T08:43:55;4.18;;;2.20;;
49241;SDS011;35079;52.704;13.814;2023-08-24T08:46:21;4.55;;;2.20;;
49241;SDS011;35079;52.704;13.814;2023-08-24T08:48:47;3.22;;;1.88;;
49241;SDS011;35079;52.704;13.814;2023-08-24T08:51:15;5.07;;;2.05;;
49241;SDS011;35079;52.704;13.814;2023-08-24T08:53:42;6.15;;;2.00;;
49241;SDS011;35079;52.704;13.814;2023-08-24T08:56:08;7.28;;;2.25;;
49241;SDS011;35079;52.704;13.814;2023-08-24T08:58:42;2.90;;;2.08;;
49241;SDS011;35079;52.704;13.814;2023-08-24T09:01:08;5.53;;;2.10;;
49241;SDS011;35079;52.704;13.814;2023-08-24T09:03:34;4.80;;;2.03;;
49241;SDS011;35079;52.704;13.814;2023-08-24T09:06:00;5.13;;;2.05;;
49241;SDS011;35079;52.704;13.814;2023-08-24T09:08:26;4.47;;;1.83;;
49241;SDS011;35079;52.704;13.814;2023-08-24T09:10:53;5.30;;;2.20;;
49241;SDS011;35079;52.704;13.814;2023-08-24T09:13:20;8.27;;;2.10;;
49241;SDS011;35079;52.704;13.814;2023-08-24T09:15:46;5.45;;;1.88;;
49241;SDS011;35079;52.704;13.814;2023-08-24T09:18:12;6.75;;;1.90;;
49241;SDS011;35079;52.704;13.814;2023-08-24T09:20:37;4.55;;;2.05;;
49241;SDS011;35079;52.704;13.814;2023-08-24T09:23:03;3.97;;;1.80;;
49241;SDS011;35079;52.704;13.814;2023-08-24T09:25:29;6.07;;;2.17;;
49241;SDS011;35079;52.704;13.814;2023-08-24T09:30:23;6.22;;;2.30;;
49241;SDS011;35079;52.704;13.814;2023-08-24T09:32:53;4.43;;;1.90;;
49241;SDS011;35079;52.704;13.814;2023-08-24T09:35:19;5.47;;;2.08;;
49241;SDS011;35079;52.704;13.814;2023-08-24T09:37:46;3.67;;;1.80;;
49241;SDS011;35079;52.704;13.814;2023-08-24T09:40:14;6.68;;;2.20;;
49241;SDS011;35079;52.704;13.814;2023-08-24T09:42:41;3.17;;;1.73;;
49241;SDS011;35079;52.704;13.814;2023-08-24T09:45:11;2.85;;;1.90;;
49241;SDS011;35079;52.704;13.814;2023-08-24T09:47:39;5.63;;;2.20;;
49241;SDS011;35079;52.704;13.814;2023-08-24T09:50:05;10.15;;;1.98;;
49241;SDS011;35079;52.704;13.814;2023-08-24T09:52:32;5.70;;;2.15;;
49241;SDS011;35079;52.704;13.814;2023-08-24T09:55:05;6.97;;;2.03;;
49241;SDS011;35079;52.704;13.814;2023-08-24T09:57:39;7.78;;;2.10;;
49241;SDS011;35079;52.704;13.814;2023-08-24T10:00:08;4.47;;;2.03;;
49241;SDS011;35079;52.704;13.814;2023-08-24T10:02:47;6.90;;;1.77;;
49241;SDS011;35079;52.704;13.814;2023-08-24T10:05:16;6.68;;;2.13;;
49241;SDS011;35079;52.704;13.814;2023-08-24T10:07:48;6.45;;;1.88;;
49241;SDS011;35079;52.704;13.814;2023-08-24T10:10:19;7.38;;;1.83;;
49241;SDS011;35079;52.704;13.814;2023-08-24T10:12:47;5.57;;;1.92;;
49241;SDS011;35079;52.704;13.814;2023-08-24T10:15:15;8.52;;;1.65;;
49241;SDS011;35079;52.704;13.814;2023-08-24T10:17:43;6.85;;;2.30;;
49241;SDS011;35079;52.704;13.814;2023-08-24T10:20:10;7.60;;;1.88;;
49241;SDS011;35079;52.704;13.814;2023-08-24T10:22:36;3.00;;;1.77;;
49241;SDS011;35079;52.704;13.814;2023-08-24T10:25:05;3.10;;;1.52;;
49241;SDS011;35079;52.704;13.814;2023-08-24T10:27:32;3.60;;;1.38;;
49241;SDS011;35079;52.704;13.814;2023-08-24T10:29:57;3.60;;;1.58;;
49241;SDS011;35079;52.704;13.814;2023-08-24T10:32:26;4.43;;;1.45;;
49241;SDS011;35079;52.704;13.814;2023-08-24T10:34:52;4.22;;;1.40;;
49241;SDS011;35079;52.704;13.814;2023-08-24T10:37:24;3.35;;;1.58;;
49241;SDS011;35079;52.704;13.814;2023-08-24T10:39:53;4.35;;;1.58;;
49241;SDS011;35079;52.704;13.814;2023-08-24T10:42:19;2.63;;;1.45;;
49241;SDS011;35079;52.704;13.814;2023-08-24T10:44:46;2.40;;;1.63;;
49241;SDS011;35079;52.704;13.814;2023-08-24T10:47:19;6.53;;;1.85;;
49241;SDS011;35079;52.704;13.814;2023-08-24T10:49:57;2.80;;;1.40;;
49241;SDS011;35079;52.704;13.814;2023-08-24T10:52:32;3.20;;;1.40;;
49241;SDS011;35079;52.704;13.814;2023-08-24T10:55:01;7.47;;;1.75;;
49241;SDS011;35079;52.704;13.814;2023-08-24T10:57:34;6.70;;;1.90;;
49241;SDS011;35079;52.704;13.814;2023-08-24T11:02:40;3.55;;;1.77;;
49241;SDS011;35079;52.704;13.814;2023-08-24T11:05:14;2.00;;;1.50;;
49241;SDS011;35079;52.704;13.814;2023-08-24T11:07:50;2.78;;;1.50;;
49241;SDS011;35079;52.704;13.814;2023-08-24T11:10:17;5.03;;;1.65;;
49241;SDS011;35079;52.704;13.814;2023-08-24T11:13:16;3.15;;;1.70;;
49241;SDS011;35079;52.704;13.814;2023-08-24T11:15:37;5.28;;;1.50;;
49241;SDS011;35079;52.704;13.814;2023-08-24T11:20:56;3.67;;;1.40;;
49241;SDS011;35079;52.704;13.814;2023-08-24T11:23:25;4.80;;;1.58;;
49241;SDS011;35079;52.704;13.814;2023-08-24T11:25:51;5.75;;;1.70;;
49241;SDS011;35079;52.704;13.814;2023-08-24T11:28:21;4.20;;;1.77;;
49241;SDS011;35079;52.704;13.814;2023-08-24T11:30:47;2.03;;;1.40;;
49241;SDS011;35079;52.704;13.814;2023-08-24T11:33:14;7.57;;;1.63;;
49241;SDS011;35079;52.704;13.814;2023-08-24T11:35:43;3.97;;;1.65;;
49241;SDS011;35079;52.704;13.814;2023-08-24T11:38:10;12.18;;;2.20;;
49241;SDS011;35079;52.704;13.814;2023-08-24T11:40:36;8.80;;;1.67;;
49241;SDS011;35079;52.704;13.814;2023-08-24T11:43:03;3.10;;;1.70;;
49241;SDS011;35079;52.704;13.814;2023-08-24T11:45:31;5.72;;;1.67;;
49241;SDS011;35079;52.704;13.814;2023-08-24T11:47:58;5.82;;;1.83;;
49241;SDS011;35079;52.704;13.814;2023-08-24T11:50:27;6.78;;;1.65;;
49241;SDS011;35079;52.704;13.814;2023-08-24T11:52:53;5.82;;;1.73;;
49241;SDS011;35079;52.704;13.814;2023-08-24T11:55:20;3.13;;;1.50;;
49241;SDS011;35079;52.704;13.814;2023-08-24T11:57:49;1.55;;;1.45;;
49241;SDS011;35079;52.704;13.814;2023-08-24T12:00:16;5.07;;;1.50;;
49241;SDS011;35079;52.704;13.814;2023-08-24T12:02:44;2.38;;;1.60;;
49241;SDS011;35079;52.704;13.814;2023-08-24T12:05:24;2.53;;;1.38;;
49241;SDS011;35079;52.704;13.814;2023-08-24T12:07:51;4.00;;;1.50;;
49241;SDS011;35079;52.704;13.814;2023-08-24T12:10:17;7.53;;;1.73;;
49241;SDS011;35079;52.704;13.814;2023-08-24T12:12:43;3.58;;;1.40;;
49241;SDS011;35079;52.704;13.814;2023-08-24T12:15:14;4.57;;;1.65;;
49241;SDS011;35079;52.704;13.814;2023-08-24T12:17:42;1.90;;;1.47;;
49241;SDS011;35079;52.704;13.814;2023-08-24T12:20:15;3.28;;;1.67;;
49241;SDS011;35079;52.704;13.814;2023-08-24T12:22:53;3.55;;;1.60;;
49241;SDS011;35079;52.704;13.814;2023-08-24T12:25:22;5.35;;;1.70;;
49241;SDS011;35079;52.704;13.814;2023-08-24T12:27:49;4.22;;;1.80;;
49241;SDS011;35079;52.704;13.814;2023-08-24T12:30:18;4.30;;;1.83;;
49241;SDS011;35079;52.704;13.814;2023-08-24T12:32:48;3.38;;;1.70;;
49241;SDS011;35079;52.704;13.814;2023-08-24T12:35:15;4.63;;;2.05;;
49241;SDS011;35079;52.704;13.814;2023-08-24T12:37:42;2.65;;;1.60;;
49241;SDS011;35079;52.704;13.814;2023-08-24T12:40:08;2.88;;;1.75;;
49241;SDS011;35079;52.704;13.814;2023-08-24T12:42:34;4.25;;;1.85;;
49241;SDS011;35079;52.704;13.814;2023-08-24T12:45:00;4.20;;;1.80;;
49241;SDS011;35079;52.704;13.814;2023-08-24T12:47:25;3.28;;;1.98;;
49241;SDS011;35079;52.704;13.814;2023-08-24T12:49:51;10.75;;;1.77;;
49241;SDS011;35079;52.704;13.814;2023-08-24T12:52:17;8.07;;;2.00;;
49241;SDS011;35079;52.704;13.814;2023-08-24T12:54:43;4.82;;;2.10;;
49241;SDS011;35079;52.704;13.814;2023-08-24T12:57:09;4.20;;;1.98;;
49241;SDS011;35079;52.704;13.814;2023-08-24T12:59:35;5.30;;;1.80;;
49241;SDS011;35079;52.704;13.814;2023-08-24T13:02:00;2.72;;;1.90;;
49241;SDS011;35079;52.704;13.814;2023-08-24T13:04:26;5.53;;;2.13;;
49241;SDS011;35079;52.704;13.814;2023-08-24T13:06:54;4.95;;;1.80;;
49241;SDS011;35079;52.704;13.814;2023-08-24T13:09:20;3.53;;;1.80;;
49241;SDS011;35079;52.704;13.814;2023-08-24T13:11:45;2.75;;;1.80;;
49241;SDS011;35079;52.704;13.814;2023-08-24T13:14:13;6.40;;;1.85;;
49241;SDS011;35079;52.704;13.814;2023-08-24T13:16:39;4.35;;;2.22;;
49241;SDS011;35079;52.704;13.814;2023-08-24T13:19:04;4.53;;;2.22;;
49241;SDS011;35079;52.704;13.814;2023-08-24T13:21:30;3.17;;;2.10;;
49241;SDS011;35079;52.704;13.814;2023-08-24T13:23:55;6.75;;;2.00;;
49241;SDS011;35079;52.704;13.814;2023-08-24T13:26:21;12.10;;;2.10;;
49241;SDS011;35079;52.704;13.814;2023-08-24T13:28:48;3.45;;;2.08;;
49241;SDS011;35079;52.704;13.814;2023-08-24T13:31:14;5.05;;;2.28;;
49241;SDS011;35079;52.704;13.814;2023-08-24T13:33:40;5.43;;;2.10;;
49241;SDS011;35079;52.704;13.814;2023-08-24T13:36:06;6.45;;;2.47;;
49241;SDS011;35079;52.704;13.814;2023-08-24T13:38:31;2.95;;;1.63;;
49241;SDS011;35079;52.704;13.814;2023-08-24T13:40:57;4.68;;;2.33;;
49241;SDS011;35079;52.704;13.814;2023-08-24T13:43:22;5.47;;;2.30;;
49241;SDS011;35079;52.704;13.814;2023-08-24T13:45:48;4.05;;;2.03;;
49241;SDS011;35079;52.704;13.814;2023-08-24T13:48:14;4.70;;;2.15;;
49241;SDS011;35079;52.704;13.814;2023-08-24T13:50:41;6.75;;;2.50;;
49241;SDS011;35079;52.704;13.814;2023-08-24T13:53:06;4.53;;;2.75;;
49241;SDS011;35079;52.704;13.814;2023-08-24T13:55:32;4.65;;;2.42;;
49241;SDS011;35079;52.704;13.814;2023-08-24T13:57:57;5.53;;;2.47;;
49241;SDS011;35079;52.704;13.814;2023-08-24T14:00:23;6.07;;;2.72;;
49241;SDS011;35079;52.704;13.814;2023-08-24T14:02:50;4.65;;;2.28;;
49241;SDS011;35079;52.704;13.814;2023-08-24T14:05:15;8.25;;;2.38;;
49241;SDS011;35079;52.704;13.814;2023-08-24T14:07:41;8.05;;;2.63;;
49241;SDS011;35079;52.704;13.814;2023-08-24T14:10:07;5.78;;;1.88;;
49241;SDS011;35079;52.704;13.814;2023-08-24T14:12:33;4.82;;;2.35;;
49241;SDS011;35079;52.704;13.814;2023-08-24T14:14:59;4.03;;;2.50;;
49241;SDS011;35079;52.704;13.814;2023-08-24T14:17:25;5.15;;;2.28;;
49241;SDS011;35079;52.704;13.814;2023-08-24T14:19:51;5.07;;;2.10;;
49241;SDS011;35079;52.704;13.814;2023-08-24T14:22:16;5.10;;;2.10;;
49241;SDS011;35079;52.704;13.814;2023-08-24T14:24:42;4.57;;;2.25;;
49241;SDS011;35079;52.704;13.814;2023-08-24T14:27:08;5.00;;;2.60;;
49241;SDS011;35079;52.704;13.814;2023-08-24T14:29:33;4.50;;;2.22;;
49241;SDS011;35079;52.704;13.814;2023-08-24T14:31:59;5.28;;;2.45;;
49241;SDS011;35079;52.704;13.814;2023-08-24T14:34:24;3.92;;;2.60;;
49241;SDS011;35079;52.704;13.814;2023-08-24T14:36:50;4.22;;;2.15;;
49241;SDS011;35079;52.704;13.814;2023-08-24T14:39:16;5.78;;;2.40;;
49241;SDS011;35079;52.704;13.814;2023-08-24T14:41:41;7.05;;;3.17;;
49241;SDS011;35079;52.704;13.814;2023-08-24T14:44:07;6.22;;;2.50;;